Time;durP1;ratioP1;P1;durP2;ratioP2;P2;SDS_P1;SDS_P2;PMS_P1;PMS_P2;Temp;Humidity;BMP_temperature;BMP_pressure;BME280_temperature;BME280_humidity;BME280_pressure;Samples;Min_cycle;Max_cycle;Signal;HPM_P1;HPM_P2
2022/10/09 00:01:50;;;;;;;19.50;18.00;;;4.70;99.90;;;;;;5101059;28;20477;-67
2022/10/09 00:04:19;;;;;;;19.23;17.60;;;4.70;99.90;;;;;;5102290;28;20552;-67
2022/10/09 00:06:45;;;;;;;18.60;17.30;;;4.70;99.90;;;;;;5091918;28;20461;-68
2022/10/09 00:09:13;;;;;;;17.83;16.30;;;4.70;99.90;;;;;;5100671;28;20455;-67
2022/10/09 00:11:40;;;;;;;18.50;17.23;;;4.60;99.90;;;;;;5096129;28;20462;-67
2022/10/09 00:14:06;;;;;;;25.07;18.83;;;4.70;99.90;;;;;;5092952;28;20566;-67
2022/10/09 00:16:33;;;;;;;19.20;17.60;;;4.70;99.90;;;;;;5094273;28;20468;-67
2022/10/09 00:19:01;;;;;;;18.33;16.50;;;4.80;99.90;;;;;;5095794;28;20502;-67
2022/10/09 00:21:31;;;;;;;17.10;16.00;;;4.80;99.90;;;;;;5099327;28;20453;-67
2022/10/09 00:24:00;;;;;;;17.93;16.63;;;4.70;99.90;;;;;;5097255;28;20501;-67
2022/10/09 00:26:27;;;;;;;18.73;16.90;;;4.80;99.90;;;;;;5096338;28;20830;-67
2022/10/09 00:28:54;;;;;;;19.60;17.63;;;4.70;99.90;;;;;;5101147;28;20534;-67
2022/10/09 00:31:20;;;;;;;18.13;16.70;;;4.70;99.90;;;;;;5093234;28;20923;-68
2022/10/09 00:33:48;;;;;;;18.57;17.07;;;4.80;99.90;;;;;;5097733;28;20952;-68
2022/10/09 00:36:17;;;;;;;18.77;17.27;;;4.80;99.90;;;;;;5094004;28;20803;-68
2022/10/09 00:38:45;;;;;;;18.93;17.50;;;4.70;99.90;;;;;;5099160;28;20462;-67
2022/10/09 00:41:15;;;;;;;20.50;16.90;;;4.70;99.90;;;;;;5096158;28;20520;-67
2022/10/09 00:43:45;;;;;;;17.50;16.30;;;4.60;99.90;;;;;;5096836;28;20582;-67
2022/10/09 00:46:26;;;;;;;19.27;17.67;;;4.60;99.90;;;;;;5093970;28;20630;-67
2022/10/09 00:48:59;;;;;;;18.10;16.90;;;4.60;99.90;;;;;;5103870;28;20779;-67
2022/10/09 00:51:26;;;;;;;18.60;17.00;;;4.50;99.90;;;;;;5093716;28;20462;-67
2022/10/09 00:53:55;;;;;;;19.23;17.50;;;4.40;99.90;;;;;;5095633;28;20492;-67
2022/10/09 00:56:22;;;;;;;18.40;17.00;;;4.40;99.90;;;;;;5098631;28;20468;-67
2022/10/09 00:58:53;;;;;;;20.53;18.50;;;4.30;99.90;;;;;;5092805;28;20892;-67
2022/10/09 01:01:20;;;;;;;18.73;17.43;;;4.20;99.90;;;;;;5088955;28;20960;-67
2022/10/09 01:03:47;;;;;;;18.53;16.70;;;4.20;99.90;;;;;;5096147;28;20490;-68
2022/10/09 01:06:20;;;;;;;20.23;18.37;;;4.20;99.90;;;;;;5098086;28;20968;-66
2022/10/09 01:08:54;;;;;;;18.53;16.80;;;4.20;99.90;;;;;;5094986;28;20458;-68
2022/10/09 01:11:34;;;;;;;17.37;16.27;;;4.20;99.90;;;;;;5091039;28;20928;-68
2022/10/09 01:14:06;;;;;;;22.13;17.17;;;4.10;99.90;;;;;;5095877;28;20464;-68
2022/10/09 01:16:37;;;;;;;17.37;16.17;;;4.20;99.90;;;;;;5093460;28;20949;-68
2022/10/09 01:19:12;;;;;;;17.63;16.37;;;4.10;99.90;;;;;;5095733;28;20488;-68
2022/10/09 01:21:42;;;;;;;19.10;17.53;;;4.10;99.90;;;;;;5094124;28;20470;-67
2022/10/09 01:24:21;;;;;;;19.00;17.43;;;4.10;99.90;;;;;;5091212;28;20489;-68
2022/10/09 01:27:00;;;;;;;18.97;17.43;;;4.10;99.90;;;;;;5094271;28;20539;-67
2022/10/09 01:29:32;;;;;;;18.83;17.13;;;4.10;99.90;;;;;;5094222;28;20478;-68
2022/10/09 01:32:01;;;;;;;18.00;16.80;;;4.10;99.90;;;;;;5093875;28;20645;-68
2022/10/09 01:34:30;;;;;;;19.37;17.47;;;4.10;99.90;;;;;;5094760;28;20460;-66
2022/10/09 01:36:59;;;;;;;18.77;17.33;;;4.10;99.90;;;;;;5097216;28;20886;-67
2022/10/09 01:39:27;;;;;;;18.43;16.97;;;4.10;99.90;;;;;;5093512;28;20466;-68
2022/10/09 01:41:56;;;;;;;20.00;18.37;;;4.10;99.90;;;;;;5097323;28;20489;-68
2022/10/09 01:44:24;;;;;;;20.07;17.97;;;4.00;99.90;;;;;;5094588;28;20478;-67
2022/10/09 01:46:52;;;;;;;18.50;17.20;;;4.00;99.90;;;;;;5091385;28;20522;-66
2022/10/09 01:49:30;;;;;;;18.00;16.80;;;3.90;99.90;;;;;;5094018;28;20469;-67
2022/10/09 01:52:02;;;;;;;18.57;16.83;;;3.90;99.90;;;;;;5100755;28;20485;-67
2022/10/09 01:54:37;;;;;;;18.30;17.10;;;3.90;99.90;;;;;;5092109;28;20490;-68
2022/10/09 01:57:08;;;;;;;18.50;16.97;;;3.80;99.90;;;;;;5094329;28;20457;-66
2022/10/09 01:59:40;;;;;;;16.97;15.87;;;3.80;99.90;;;;;;5093931;28;20458;-67
2022/10/09 02:02:08;;;;;;;18.53;16.80;;;3.80;99.90;;;;;;5090557;28;20850;-67
2022/10/09 02:04:37;;;;;;;17.33;15.73;;;3.70;99.90;;;;;;5099647;28;20550;-67
2022/10/09 02:07:06;;;;;;;17.77;16.30;;;3.70;99.90;;;;;;5095131;28;20469;-66
2022/10/09 02:09:37;;;;;;;16.47;15.40;;;3.70;99.90;;;;;;5094224;28;20465;-66
2022/10/09 02:12:09;;;;;;;18.17;16.30;;;3.80;99.90;;;;;;5093828;28;20481;-67
2022/10/09 02:14:38;;;;;;;19.17;17.33;;;3.70;99.90;;;;;;5091542;28;21025;-68
2022/10/09 02:17:08;;;;;;;18.37;16.90;;;3.70;99.90;;;;;;5092572;28;20454;-68
2022/10/09 02:19:41;;;;;;;18.77;16.77;;;3.60;99.90;;;;;;5094039;28;20493;-66
2022/10/09 02:22:13;;;;;;;19.13;17.53;;;3.60;99.90;;;;;;5096522;28;20454;-68
2022/10/09 02:24:43;;;;;;;17.93;16.63;;;3.60;99.90;;;;;;5095870;28;20486;-67
2022/10/09 02:27:12;;;;;;;18.27;16.77;;;3.50;99.90;;;;;;5096354;28;20458;-66
2022/10/09 02:29:39;;;;;;;18.50;16.87;;;3.50;99.90;;;;;;5093115;28;20492;-66
2022/10/09 02:32:08;;;;;;;18.77;17.00;;;3.50;99.90;;;;;;5092402;28;20516;-67
2022/10/09 02:34:35;;;;;;;17.97;16.47;;;3.40;99.90;;;;;;5104829;28;20449;-67
2022/10/09 02:37:01;;;;;;;17.97;16.60;;;3.50;99.90;;;;;;5097326;28;20474;-66
2022/10/09 02:39:29;;;;;;;19.20;17.50;;;3.40;99.90;;;;;;5096196;28;20462;-66
2022/10/09 02:41:56;;;;;;;19.43;17.73;;;3.40;99.90;;;;;;5098248;28;20461;-67
2022/10/09 02:44:24;;;;;;;18.07;16.63;;;3.40;99.90;;;;;;5095650;28;20489;-66
2022/10/09 02:46:51;;;;;;;18.43;16.90;;;3.40;99.90;;;;;;5094549;28;20548;-66
2022/10/09 02:49:19;;;;;;;18.50;16.90;;;3.40;99.90;;;;;;5092298;28;20657;-67
2022/10/09 02:51:45;;;;;;;18.90;17.40;;;3.40;99.90;;;;;;5093235;28;20458;-67
2022/10/09 02:54:12;;;;;;;19.03;17.40;;;3.40;99.90;;;;;;5094232;28;20465;-67
2022/10/09 02:56:39;;;;;;;18.97;17.13;;;3.40;99.90;;;;;;5089131;28;20794;-66
2022/10/09 02:59:06;;;;;;;18.63;17.17;;;3.50;99.90;;;;;;5091503;28;20965;-67
2022/10/09 03:01:34;;;;;;;21.63;18.77;;;3.50;99.90;;;;;;5090709;28;20461;-67
2022/10/09 03:04:02;;;;;;;19.57;17.57;;;3.50;99.90;;;;;;5099627;28;20492;-67
2022/10/09 03:06:30;;;;;;;23.80;17.37;;;3.50;99.90;;;;;;5089644;28;20455;-67
2022/10/09 03:08:57;;;;;;;29.77;17.97;;;3.70;99.90;;;;;;5091849;28;20472;-67
2022/10/09 03:11:25;;;;;;;19.07;17.17;;;3.80;99.90;;;;;;5089381;28;20465;-66
2022/10/09 03:13:53;;;;;;;22.97;18.23;;;3.80;99.90;;;;;;5093270;28;20463;-67
2022/10/09 03:16:21;;;;;;;21.57;19.23;;;3.90;99.90;;;;;;5091974;28;20496;-68
2022/10/09 03:18:50;;;;;;;19.23;16.90;;;3.90;99.90;;;;;;5089488;28;20592;-68
2022/10/09 03:21:21;;;;;;;21.60;17.33;;;3.90;99.90;;;;;;5095450;28;20566;-65
2022/10/09 03:23:48;;;;;;;36.13;17.07;;;3.80;99.90;;;;;;5091958;28;20573;-65
2022/10/09 03:26:16;;;;;;;27.97;18.17;;;3.70;99.90;;;;;;5098204;28;20576;-68
2022/10/09 03:28:46;;;;;;;33.33;17.50;;;3.70;99.90;;;;;;5095082;28;20574;-67
2022/10/09 03:31:13;;;;;;;19.20;16.90;;;3.80;99.90;;;;;;5091293;28;20461;-66
2022/10/09 03:33:40;;;;;;;31.13;17.73;;;3.80;99.90;;;;;;5093350;28;20469;-66
2022/10/09 03:36:08;;;;;;;28.33;17.73;;;3.80;99.90;;;;;;5098749;28;20544;-68
2022/10/09 03:38:36;;;;;;;32.20;18.60;;;3.70;99.90;;;;;;5095403;28;20453;-67
2022/10/09 03:41:04;;;;;;;33.80;18.13;;;3.70;99.90;;;;;;5097274;28;20530;-67
2022/10/09 03:43:32;;;;;;;19.50;17.50;;;3.70;99.90;;;;;;5094318;28;20470;-66
2022/10/09 03:45:58;;;;;;;31.50;19.00;;;3.70;99.90;;;;;;5091736;28;20569;-65
2022/10/09 03:48:26;;;;;;;25.30;17.23;;;3.60;99.90;;;;;;5092659;28;20982;-65
2022/10/09 03:50:52;;;;;;;28.83;17.40;;;3.50;99.90;;;;;;5092178;28;20462;-67
2022/10/09 03:53:21;;;;;;;22.03;16.60;;;3.60;99.90;;;;;;5094377;28;20468;-68
2022/10/09 03:55:48;;;;;;;23.33;18.80;;;3.50;99.90;;;;;;5098281;28;20490;-66
2022/10/09 03:58:15;;;;;;;35.13;19.80;;;3.50;99.90;;;;;;5096393;28;21932;-67
2022/10/09 04:00:44;;;;;;;23.60;18.30;;;3.60;99.90;;;;;;5094892;28;20466;-65
2022/10/09 04:03:11;;;;;;;20.53;17.80;;;3.60;99.90;;;;;;5097274;28;20737;-67
2022/10/09 04:05:38;;;;;;;22.13;16.47;;;3.50;99.90;;;;;;5088933;28;20876;-66
2022/10/09 04:08:05;;;;;;;26.60;17.07;;;3.50;99.90;;;;;;5093044;28;20615;-66
2022/10/09 04:10:33;;;;;;;24.43;16.60;;;3.50;99.90;;;;;;5092059;28;20477;-66
2022/10/09 04:13:01;;;;;;;22.90;17.60;;;3.40;99.90;;;;;;5090731;28;20462;-66
2022/10/09 04:15:28;;;;;;;19.10;17.37;;;3.30;99.90;;;;;;5092898;28;20462;-66
2022/10/09 04:17:55;;;;;;;21.47;16.80;;;3.30;99.90;;;;;;5090369;28;20876;-66
2022/10/09 04:20:21;;;;;;;24.37;17.93;;;3.30;99.90;;;;;;5099132;28;20551;-66
2022/10/09 04:22:48;;;;;;;19.73;17.43;;;3.30;99.90;;;;;;5091804;28;20504;-66
2022/10/09 04:25:15;;;;;;;20.17;16.97;;;3.30;99.90;;;;;;5095081;28;20873;-66
2022/10/09 04:27:43;;;;;;;18.33;17.00;;;3.30;99.90;;;;;;5093781;28;20520;-66
2022/10/09 04:30:11;;;;;;;19.33;17.30;;;3.30;99.90;;;;;;5088269;28;20462;-66
2022/10/09 04:32:37;;;;;;;18.60;16.87;;;3.20;99.90;;;;;;5093441;28;21046;-66
2022/10/09 04:35:05;;;;;;;20.13;18.20;;;3.10;99.90;;;;;;5089994;28;20868;-66
2022/10/09 04:37:32;;;;;;;29.37;19.33;;;3.10;99.90;;;;;;5091664;28;20467;-66
2022/10/09 04:39:58;;;;;;;18.93;17.43;;;3.10;99.90;;;;;;5092905;28;20466;-66
2022/10/09 04:42:26;;;;;;;19.53;17.83;;;3.00;99.90;;;;;;5094960;28;20828;-66
2022/10/09 04:44:54;;;;;;;22.53;18.17;;;3.00;99.90;;;;;;5091766;28;20797;-66
2022/10/09 04:47:21;;;;;;;22.73;19.20;;;3.00;99.90;;;;;;5093837;28;20553;-67
2022/10/09 04:49:48;;;;;;;24.07;18.00;;;3.00;99.90;;;;;;5094072;28;20462;-66
2022/10/09 04:52:14;;;;;;;20.83;18.97;;;3.00;99.90;;;;;;5094475;28;20472;-66
2022/10/09 04:54:42;;;;;;;27.00;18.50;;;3.10;99.90;;;;;;5095089;28;20465;-67
2022/10/09 04:57:09;;;;;;;28.47;19.90;;;3.10;99.90;;;;;;5088483;28;20658;-67
2022/10/09 04:59:36;;;;;;;19.80;17.90;;;3.00;99.90;;;;;;5092484;28;20940;-66
2022/10/09 05:02:04;;;;;;;20.93;18.80;;;2.90;99.90;;;;;;5091164;28;20500;-67
2022/10/09 05:04:31;;;;;;;21.30;18.50;;;2.90;99.90;;;;;;5093788;28;20555;-66
2022/10/09 05:06:58;;;;;;;19.83;18.27;;;2.80;99.90;;;;;;5091564;28;20869;-66
2022/10/09 05:09:25;;;;;;;23.67;18.33;;;2.90;99.90;;;;;;5095558;28;20458;-66
2022/10/09 05:11:52;;;;;;;20.40;18.17;;;2.90;99.90;;;;;;5089463;28;20875;-66
2022/10/09 05:14:18;;;;;;;19.20;17.43;;;2.90;99.90;;;;;;5094373;28;20458;-66
2022/10/09 05:16:45;;;;;;;19.20;17.17;;;2.80;99.90;;;;;;5092458;28;20473;-66
2022/10/09 05:19:13;;;;;;;19.57;17.97;;;2.90;99.90;;;;;;5093252;28;20961;-66
2022/10/09 05:21:40;;;;;;;21.37;16.97;;;2.90;99.90;;;;;;5091155;28;20470;-67
2022/10/09 05:24:07;;;;;;;20.33;17.83;;;2.90;99.90;;;;;;5090202;28;20802;-69
2022/10/09 05:26:34;;;;;;;19.37;17.57;;;2.90;99.90;;;;;;5099131;28;20461;-69
2022/10/09 05:29:01;;;;;;;20.40;18.60;;;2.90;99.90;;;;;;5093224;28;20478;-69
2022/10/09 05:31:29;;;;;;;20.50;18.43;;;2.90;99.90;;;;;;5091023;28;20462;-69
2022/10/09 05:33:58;;;;;;;21.13;18.27;;;2.90;99.90;;;;;;5091849;28;20972;-69
2022/10/09 05:36:26;;;;;;;29.87;19.13;;;2.90;99.90;;;;;;5088725;28;20468;-69
2022/10/09 05:38:53;;;;;;;19.33;17.67;;;2.90;99.90;;;;;;5093588;28;20461;-69
2022/10/09 05:41:19;;;;;;;20.53;18.47;;;2.90;99.90;;;;;;5091524;28;20964;-69
2022/10/09 05:43:49;;;;;;;20.37;18.07;;;3.00;99.90;;;;;;5090412;28;20462;-69
2022/10/09 05:46:18;;;;;;;19.53;17.80;;;3.10;99.90;;;;;;5088260;28;20498;-69
2022/10/09 05:48:47;;;;;;;18.20;16.30;;;3.20;99.90;;;;;;5089141;28;20481;-69
2022/10/09 05:51:16;;;;;;;17.30;15.97;;;3.40;99.90;;;;;;5091664;28;20458;-69
2022/10/09 05:53:45;;;;;;;20.70;16.50;;;3.60;99.90;;;;;;5090723;28;20510;-69
2022/10/09 05:56:15;;;;;;;16.70;15.03;;;3.80;99.90;;;;;;5095109;28;20484;-69
2022/10/09 05:58:42;;;;;;;17.90;16.07;;;3.90;99.90;;;;;;5099686;28;20851;-69
2022/10/09 06:01:10;;;;;;;18.17;15.70;;;4.00;99.90;;;;;;5087076;28;21580;-69
2022/10/09 06:03:37;;;;;;;17.33;15.50;;;4.10;99.90;;;;;;5093384;28;20873;-69
2022/10/09 06:06:06;;;;;;;17.63;16.03;;;4.20;99.90;;;;;;5090928;28;20705;-68
2022/10/09 06:08:34;;;;;;;19.90;16.40;;;4.30;99.90;;;;;;5090214;28;20462;-69
2022/10/09 06:11:11;;;;;;;22.70;16.00;;;4.30;99.90;;;;;;5088475;28;20457;-70
2022/10/09 06:13:38;;;;;;;18.40;16.80;;;4.40;99.90;;;;;;5096606;28;20452;-68
2022/10/09 06:16:06;;;;;;;16.87;15.60;;;4.50;99.90;;;;;;5091986;28;20461;-68
2022/10/09 06:18:33;;;;;;;17.60;15.97;;;4.60;99.90;;;;;;5091714;28;20494;-68
2022/10/09 06:21:01;;;;;;;17.87;16.17;;;4.60;99.90;;;;;;5091492;28;20460;-69
2022/10/09 06:23:28;;;;;;;17.83;16.30;;;4.80;99.90;;;;;;5091215;28;21904;-69
2022/10/09 06:25:58;;;;;;;22.50;16.03;;;4.90;99.90;;;;;;5095284;28;20484;-69
2022/10/09 06:28:27;;;;;;;17.13;15.63;;;4.90;99.90;;;;;;5091287;28;20808;-69
2022/10/09 06:30:59;;;;;;;23.60;15.40;;;5.00;99.90;;;;;;5090687;28;20475;-69
2022/10/09 06:33:29;;;;;;;20.83;16.73;;;5.00;99.90;;;;;;5092354;28;20460;-69
2022/10/09 06:35:59;;;;;;;17.07;15.47;;;5.10;99.90;;;;;;5089086;28;20511;-69
2022/10/09 06:38:26;;;;;;;17.10;15.80;;;5.20;99.90;;;;;;5089739;28;21081;-70
2022/10/09 06:40:53;;;;;;;17.00;15.20;;;5.30;99.90;;;;;;5093087;28;20801;-69
2022/10/09 06:43:20;;;;;;;17.27;15.47;;;5.40;99.90;;;;;;5091013;28;20467;-69
2022/10/09 06:45:48;;;;;;;16.90;15.03;;;5.50;99.90;;;;;;5090006;28;20857;-69
2022/10/09 06:48:15;;;;;;;18.00;16.10;;;5.50;99.90;;;;;;5090151;28;20462;-69
2022/10/09 06:50:42;;;;;;;17.97;16.50;;;5.60;99.90;;;;;;5087900;28;20506;-70
2022/10/09 06:53:08;;;;;;;18.53;16.73;;;5.70;99.90;;;;;;5088313;28;20500;-69
2022/10/09 06:55:35;;;;;;;22.10;17.10;;;5.80;99.90;;;;;;5088173;28;20463;-69
2022/10/09 06:58:02;;;;;;;22.93;16.40;;;5.90;99.90;;;;;;5087765;28;20505;-69
2022/10/09 07:00:29;;;;;;;17.63;15.93;;;5.90;99.90;;;;;;5088192;28;20458;-69
2022/10/09 07:02:57;;;;;;;20.77;16.57;;;6.00;99.90;;;;;;5085481;28;20495;-67
2022/10/09 07:05:24;;;;;;;17.93;16.43;;;6.10;99.90;;;;;;5088611;28;20495;-66
2022/10/09 07:07:51;;;;;;;19.97;17.70;;;6.20;99.90;;;;;;5092158;28;20802;-67
2022/10/09 07:10:18;;;;;;;17.37;16.07;;;6.20;99.90;;;;;;5097883;28;20458;-67
2022/10/09 07:12:45;;;;;;;17.83;16.53;;;6.30;99.90;;;;;;5093598;28;20803;-67
2022/10/09 07:15:12;;;;;;;19.43;17.80;;;6.40;99.90;;;;;;5093503;28;20477;-66
2022/10/09 07:17:39;;;;;;;20.47;18.47;;;6.60;99.90;;;;;;5088884;28;20462;-68
2022/10/09 07:20:08;;;;;;;20.17;18.20;;;6.60;99.90;;;;;;5091708;28;20837;-68
2022/10/09 07:22:34;;;;;;;22.40;18.07;;;6.70;99.90;;;;;;5098831;28;20468;-68
2022/10/09 07:25:02;;;;;;;20.73;18.30;;;6.80;99.90;;;;;;5094377;28;20541;-67
2022/10/09 07:27:29;;;;;;;21.30;18.57;;;6.80;99.90;;;;;;5092570;28;20461;-67
2022/10/09 07:29:56;;;;;;;22.37;19.20;;;6.90;99.90;;;;;;5095049;28;20816;-68
2022/10/09 07:32:23;;;;;;;21.00;18.93;;;7.00;99.90;;;;;;5089259;28;20457;-68
2022/10/09 07:34:50;;;;;;;21.53;19.30;;;7.10;99.90;;;;;;5097292;28;21107;-69
2022/10/09 07:37:18;;;;;;;21.93;19.87;;;7.20;99.90;;;;;;5092117;28;20458;-67
2022/10/09 07:39:45;;;;;;;22.83;20.47;;;7.30;99.90;;;;;;5091994;28;20465;-68
2022/10/09 07:42:12;;;;;;;27.20;21.80;;;7.50;99.90;;;;;;5091015;28;20821;-67
2022/10/09 07:44:38;;;;;;;25.00;21.47;;;7.50;99.90;;;;;;5095336;28;20466;-69
2022/10/09 07:47:06;;;;;;;23.70;21.40;;;7.60;99.90;;;;;;5095713;28;20453;-67
2022/10/09 07:49:33;;;;;;;29.07;21.80;;;7.70;99.90;;;;;;5093534;28;20446;-67
2022/10/09 07:52:00;;;;;;;26.47;21.63;;;7.80;99.90;;;;;;5095112;28;20625;-67
2022/10/09 07:54:28;;;;;;;24.70;21.97;;;7.90;99.90;;;;;;5098470;28;20855;-67
2022/10/09 07:56:55;;;;;;;27.60;22.00;;;8.00;99.90;;;;;;5095684;28;20548;-69
2022/10/09 07:59:22;;;;;;;27.17;21.60;;;8.10;99.90;;;;;;5100261;28;20480;-67
2022/10/09 08:01:49;;;;;;;29.83;21.67;;;8.10;99.90;;;;;;5095616;28;20846;-69
2022/10/09 08:04:15;;;;;;;24.73;21.50;;;8.30;99.90;;;;;;5097798;28;20460;-67
2022/10/09 08:06:42;;;;;;;26.13;23.43;;;8.40;99.90;;;;;;5092990;28;20497;-67
2022/10/09 08:09:09;;;;;;;24.00;21.77;;;8.50;99.90;;;;;;5093125;28;20466;-67
2022/10/09 08:11:39;;;;;;;25.33;22.73;;;8.60;99.90;;;;;;5092067;28;20462;-67
2022/10/09 08:14:07;;;;;;;25.67;22.77;;;8.80;99.90;;;;;;5093497;28;20549;-69
2022/10/09 08:16:34;;;;;;;24.90;22.63;;;8.90;99.90;;;;;;5092984;28;20462;-68
2022/10/09 08:19:01;;;;;;;24.43;22.27;;;9.00;99.90;;;;;;5094687;28;20509;-67
2022/10/09 08:21:31;;;;;;;25.87;22.00;;;9.10;99.90;;;;;;5095811;28;20453;-68
2022/10/09 08:23:59;;;;;;;27.33;22.90;;;9.20;99.90;;;;;;5096566;28;20461;-70
2022/10/09 08:26:28;;;;;;;27.50;22.80;;;9.40;99.90;;;;;;5094875;28;20492;-68
2022/10/09 08:28:59;;;;;;;26.57;23.73;;;9.50;99.90;;;;;;5093124;28;20512;-68
2022/10/09 08:31:27;;;;;;;27.43;22.17;;;9.60;99.90;;;;;;5096211;28;20456;-67
2022/10/09 08:33:55;;;;;;;25.13;22.53;;;9.80;99.90;;;;;;5091989;28;20465;-68
2022/10/09 08:36:23;;;;;;;26.70;23.03;;;9.90;99.90;;;;;;5092623;28;20476;-68
2022/10/09 08:38:51;;;;;;;27.33;24.43;;;10.10;99.90;;;;;;5093694;28;20497;-69
2022/10/09 08:41:27;;;;;;;26.57;23.90;;;10.10;99.90;;;;;;5095374;28;20592;-69
2022/10/09 08:44:00;;;;;;;28.40;23.50;;;10.30;99.90;;;;;;5093817;28;20494;-68
2022/10/09 08:46:31;;;;;;;32.00;22.50;;;10.40;99.90;;;;;;5086219;28;20489;-68
2022/10/09 08:49:00;;;;;;;28.20;25.17;;;10.50;99.90;;;;;;5092392;28;20869;-68
2022/10/09 08:51:31;;;;;;;33.03;23.63;;;10.70;99.90;;;;;;5092678;28;20601;-68
2022/10/09 08:54:03;;;;;;;33.30;24.20;;;10.80;99.90;;;;;;5091331;28;20465;-67
2022/10/09 08:56:33;;;;;;;25.63;22.77;;;10.90;99.90;;;;;;5083875;28;20492;-67
2022/10/09 08:59:02;;;;;;;26.37;23.87;;;11.10;99.90;;;;;;5082349;28;20515;-67
2022/10/09 09:01:36;;;;;;;28.57;24.80;;;11.20;99.90;;;;;;5090741;28;20462;-68
2022/10/09 09:04:21;;;;;;;26.73;23.77;;;11.30;99.90;;;;;;5093857;28;20458;-68
2022/10/09 09:06:56;;;;;;;24.50;22.13;;;11.50;99.90;;;;;;5089606;28;20504;-67
2022/10/09 09:09:30;;;;;;;28.77;22.13;;;11.60;99.90;;;;;;5092126;28;20458;-68
2022/10/09 09:12:04;;;;;;;25.10;22.90;;;11.60;99.90;;;;;;5089381;28;20996;-69
2022/10/09 09:14:47;;;;;;;23.83;21.33;;;11.80;99.90;;;;;;5094215;28;20563;-70
2022/10/09 09:17:23;;;;;;;25.87;21.00;;;11.90;99.90;;;;;;5091617;28;20461;-68
2022/10/09 09:20:01;;;;;;;24.80;22.30;;;12.00;99.90;;;;;;5094709;28;20485;-68
2022/10/09 09:22:28;;;;;;;23.60;21.27;;;12.20;99.90;;;;;;5090027;28;20461;-68
2022/10/09 09:24:57;;;;;;;23.07;20.73;;;12.30;99.90;;;;;;5091051;28;20461;-67
2022/10/09 09:27:28;;;;;;;30.60;20.80;;;12.30;99.90;;;;;;5092516;28;20501;-70
2022/10/09 09:30:01;;;;;;;23.33;21.07;;;12.50;99.90;;;;;;5078963;28;20544;-68
2022/10/09 09:32:30;;;;;;;24.53;20.73;;;12.60;99.90;;;;;;5089454;28;20463;-69
2022/10/09 09:35:02;;;;;;;23.37;21.23;;;12.80;99.90;;;;;;5087972;28;20496;-68
2022/10/09 09:37:29;;;;;;;21.60;19.80;;;12.80;99.90;;;;;;5089737;28;20497;-68
2022/10/09 09:39:57;;;;;;;21.30;19.30;;;12.90;99.90;;;;;;5085633;28;20470;-70
2022/10/09 09:42:24;;;;;;;21.20;19.10;;;13.10;99.90;;;;;;5096325;28;20462;-68
2022/10/09 09:44:59;;;;;;;23.90;20.00;;;13.30;99.90;;;;;;5092286;28;20462;-68
2022/10/09 09:47:30;;;;;;;20.67;19.00;;;13.40;99.90;;;;;;5093507;28;20491;-69
2022/10/09 09:49:59;;;;;;;21.60;19.90;;;13.50;99.90;;;;;;5089903;28;20453;-68
2022/10/09 09:52:30;;;;;;;22.50;19.03;;;13.90;99.90;;;;;;5091280;28;20462;-68
2022/10/09 09:54:58;;;;;;;23.13;19.20;;;14.60;99.90;;;;;;5089851;28;20971;-70
2022/10/09 09:57:31;;;;;;;19.27;17.70;;;15.40;99.90;;;;;;5088761;28;20461;-68
2022/10/09 10:00:14;;;;;;;17.90;16.60;;;16.50;99.90;;;;;;5088433;28;20461;-69
2022/10/09 10:02:41;;;;;;;19.73;17.83;;;17.10;99.90;;;;;;5091026;28;20812;-69
2022/10/09 10:05:18;;;;;;;18.73;17.17;;;17.10;99.90;;;;;;5089183;28;20573;-68
2022/10/09 10:07:48;;;;;;;17.63;16.53;;;17.20;99.90;;;;;;5091350;28;21139;-68
2022/10/09 10:10:18;;;;;;;18.10;16.60;;;17.20;99.90;;;;;;5088149;28;20458;-70
2022/10/09 10:12:54;;;;;;;18.43;16.87;;;17.50;99.90;;;;;;5088680;28;20453;-68
2022/10/09 10:15:26;;;;;;;19.03;17.27;;;18.10;99.90;;;;;;5084654;28;20929;-71
2022/10/09 10:18:00;;;;;;;19.07;17.30;;;18.40;99.90;;;;;;5096108;28;20450;-70
2022/10/09 10:20:29;;;;;;;19.60;17.47;;;19.10;99.90;;;;;;5091802;28;20454;-71
2022/10/09 10:22:58;;;;;;;18.50;17.00;;;19.60;99.90;;;;;;5087719;28;20466;-68
2022/10/09 10:25:31;;;;;;;18.67;16.83;;;19.90;99.90;;;;;;5091311;28;20516;-68
2022/10/09 10:28:03;;;;;;;18.47;16.70;;;20.00;99.90;;;;;;5089043;28;20831;-71
2022/10/09 10:30:34;;;;;;;17.63;16.10;;;20.30;99.90;;;;;;5087478;28;20465;-68
2022/10/09 10:33:06;;;;;;;16.07;15.03;;;21.10;99.90;;;;;;5086054;28;20823;-70
2022/10/09 10:35:37;;;;;;;17.00;15.60;;;21.00;99.90;;;;;;5089498;28;21142;-71
2022/10/09 10:38:08;;;;;;;16.57;15.60;;;20.60;99.90;;;;;;5089673;28;20465;-68
2022/10/09 10:40:37;;;;;;;17.30;16.03;;;20.50;99.90;;;;;;5090143;28;20453;-68
2022/10/09 10:43:13;;;;;;;16.30;15.40;;;20.60;99.90;;;;;;5086008;28;20465;-68
2022/10/09 10:45:58;;;;;;;17.00;15.50;;;20.20;99.50;;;;;;5091828;28;20572;-69
2022/10/09 10:48:27;;;;;;;16.07;15.20;;;20.20;99.90;;;;;;5088735;28;20462;-68
2022/10/09 10:51:04;;;;;;;16.57;15.63;;;19.90;99.90;;;;;;5084201;28;20576;-67
2022/10/09 10:53:43;;;;;;;16.57;15.47;;;20.00;99.90;;;;;;5093055;28;20657;-67
2022/10/09 10:56:16;;;;;;;16.90;15.50;;;20.30;99.90;;;;;;5087401;28;20960;-71
2022/10/09 10:58:52;;;;;;;17.07;15.67;;;20.60;99.20;;;;;;5088182;28;20460;-67
2022/10/09 11:01:30;;;;;;;16.17;15.13;;;21.00;98.40;;;;;;5090195;28;20480;-67
2022/10/09 11:04:14;;;;;;;16.33;15.20;;;21.10;96.90;;;;;;5094637;28;20457;-68
2022/10/09 11:06:49;;;;;;;16.40;15.50;;;21.20;97.10;;;;;;5089068;28;20495;-70
2022/10/09 11:09:23;;;;;;;16.90;15.50;;;21.50;96.80;;;;;;5087493;28;20978;-71
2022/10/09 11:11:54;;;;;;;16.20;15.20;;;21.50;96.50;;;;;;5087473;28;20889;-67
2022/10/09 11:14:36;;;;;;;16.10;15.00;;;21.90;95.80;;;;;;5087726;28;20468;-68
2022/10/09 11:17:14;;;;;;;16.50;15.30;;;22.20;95.30;;;;;;5087422;28;20477;-70
2022/10/09 11:20:14;;;;;;;15.67;14.30;;;22.30;95.00;;;;;;5092167;28;20487;-68
2022/10/09 11:22:55;;;;;;;16.30;15.00;;;22.70;93.10;;;;;;5089864;28;20461;-68
2022/10/09 11:25:29;;;;;;;15.90;14.90;;;22.50;92.50;;;;;;5088213;28;20829;-69
2022/10/09 11:28:02;;;;;;;16.60;15.30;;;22.20;92.60;;;;;;5086431;28;20496;-71
2022/10/09 11:30:37;;;;;;;16.33;15.23;;;22.00;92.50;;;;;;5087493;28;20548;-68
2022/10/09 11:33:17;;;;;;;16.40;15.33;;;22.10;93.20;;;;;;5087458;28;20560;-68
2022/10/09 11:35:48;;;;;;;15.63;14.67;;;22.10;91.90;;;;;;5091868;28;20594;-69
2022/10/09 11:38:25;;;;;;;16.50;15.30;;;22.20;92.00;;;;;;5090855;28;20454;-71
2022/10/09 11:40:53;;;;;;;15.73;14.80;;;23.00;90.60;;;;;;5085629;28;20461;-69
2022/10/09 11:43:37;;;;;;;15.80;14.70;;;22.70;90.20;;;;;;5086977;28;20455;-70
2022/10/09 11:46:09;;;;;;;15.57;14.70;;;22.40;91.00;;;;;;5085267;28;20461;-69
2022/10/09 11:48:45;;;;;;;15.57;14.37;;;22.70;90.10;;;;;;5094526;28;20462;-70
2022/10/09 11:51:19;;;;;;;15.30;14.20;;;22.90;90.00;;;;;;5092541;28;20660;-69
2022/10/09 11:53:47;;;;;;;15.70;14.60;;;23.10;88.20;;;;;;5092767;28;20453;-72
2022/10/09 11:56:22;;;;;;;16.20;15.00;;;22.90;86.30;;;;;;5091710;28;20474;-70
2022/10/09 11:58:58;;;;;;;15.57;14.67;;;22.90;87.60;;;;;;5090732;28;20467;-68
2022/10/09 12:01:29;;;;;;;15.97;14.63;;;23.40;82.60;;;;;;5090611;28;20493;-70
2022/10/09 12:04:06;;;;;;;15.40;14.40;;;23.00;79.40;;;;;;5091309;28;20582;-69
2022/10/09 12:06:47;;;;;;;15.10;14.30;;;22.50;80.80;;;;;;5093335;28;21083;-69
2022/10/09 12:09:22;;;;;;;16.43;14.83;;;22.90;80.90;;;;;;5090057;28;20557;-69
2022/10/09 12:11:58;;;;;;;15.40;14.23;;;23.00;78.20;;;;;;5089202;28;20794;-69
2022/10/09 12:14:27;;;;;;;15.07;13.97;;;23.10;78.20;;;;;;5092193;28;20995;-67
2022/10/09 12:16:54;;;;;;;15.27;14.17;;;23.20;78.50;;;;;;5092441;28;20552;-67
2022/10/09 12:19:26;;;;;;;15.33;14.27;;;23.20;78.90;;;;;;5093738;28;20485;-68
2022/10/09 12:22:03;;;;;;;14.53;13.73;;;23.40;77.20;;;;;;5083088;28;20461;-70
2022/10/09 12:24:37;;;;;;;15.57;14.53;;;23.70;77.60;;;;;;5092937;28;20453;-67
2022/10/09 12:27:05;;;;;;;15.30;14.30;;;23.60;76.30;;;;;;5089466;28;20497;-68
2022/10/09 12:29:39;;;;;;;16.53;14.93;;;23.80;72.60;;;;;;5097105;28;20481;-67
2022/10/09 12:32:12;;;;;;;14.50;13.50;;;23.70;72.40;;;;;;5092592;28;20826;-65
2022/10/09 12:34:45;;;;;;;15.47;14.13;;;23.50;71.30;;;;;;5093055;28;20453;-67
2022/10/09 12:37:16;;;;;;;14.23;13.43;;;23.80;70.10;;;;;;5088098;28;20486;-67
2022/10/09 12:39:44;;;;;;;16.03;14.30;;;23.90;68.80;;;;;;4979858;28;20875;-68
2022/10/09 12:42:17;;;;;;;17.37;15.87;;;24.10;68.90;;;;;;5024465;28;20488;-66
2022/10/09 12:44:45;;;;;;;15.53;14.37;;;24.40;66.20;;;;;;5021234;28;20884;-70
2022/10/09 12:47:22;;;;;;;15.60;14.10;;;24.30;64.30;;;;;;5017783;28;20885;-69